Terminal Aerodrome Forecast
Issued by NWS

Home | Current Version | Previous Version | Text Only | Print | Product List | Glossary On
Versions: 1 2 3 4 5 6 7 8 9 10 11 12 13 14 15
938
FTUS43 KOAX 261737
TAFSNY
TAF
KSNY 261737Z 2618/2718 14010KT P6SM SCT200
     FM262100 17013KT P6SM VCTS SCT060CB BKN100
     FM270300 16012KT P6SM BKN200
     FM270600 19009KT P6SM SCT250=

USA.gov is the U.S. government's official web portal to all federal, state and local government web resources and services.